Time;durP1;ratioP1;P1;durP2;ratioP2;P2;SDS_P1;SDS_P2;PMS_P1;PMS_P2;Temp;Humidity;BMP_temperature;BMP_pressure;BME280_temperature;BME280_humidity;BME280_pressure;Samples;Min_cycle;Max_cycle;Signal;HPM_P1;HPM_P2
2022/10/23 00:01:18;;;;;;;12.77;7.20;;;;;;;13.72;75.08;101300.53;5090892;28;20039;-67
2022/10/23 00:03:44;;;;;;;9.13;6.43;;;;;;;13.74;75.27;101306.69;5091933;28;20074;-67
2022/10/23 00:06:11;;;;;;;13.43;6.95;;;;;;;13.71;75.26;101304.41;5091920;28;20092;-66
2022/10/23 00:08:38;;;;;;;11.75;6.72;;;;;;;13.70;75.50;101300.78;5087472;28;20033;-67
2022/10/23 00:11:10;;;;;;;10.45;6.45;;;;;;;13.71;75.13;101291.31;5090198;28;20028;-66
2022/10/23 00:13:37;;;;;;;10.32;6.13;;;;;;;13.73;75.33;101297.47;5090994;28;20031;-66
2022/10/23 00:16:02;;;;;;;11.63;6.38;;;;;;;13.73;75.46;101291.06;5059495;28;20392;-66
2022/10/23 00:18:27;;;;;;;15.07;6.80;;;;;;;13.73;75.89;101291.91;5051712;28;20021;-66
2022/10/23 00:20:53;;;;;;;9.38;6.65;;;;;;;13.74;75.75;101289.94;5091480;28;20823;-66
2022/10/23 00:23:18;;;;;;;12.52;7.18;;;;;;;13.76;75.99;101298.91;5091193;28;20084;-66
2022/10/23 00:25:43;;;;;;;15.65;7.15;;;;;;;13.75;75.46;101292.50;5091421;28;20023;-66
2022/10/23 00:28:09;;;;;;;12.60;6.95;;;;;;;13.74;76.04;101296.38;5090975;28;20104;-66
2022/10/23 00:30:35;;;;;;;13.60;6.10;;;;;;;13.75;76.15;101297.22;5087520;28;20022;-66
2022/10/23 00:33:00;;;;;;;10.88;6.68;;;;;;;13.76;75.76;101298.91;5086381;28;20222;-66
2022/10/23 00:35:26;;;;;;;10.48;6.95;;;;;;;13.78;76.05;101295.84;5050692;28;20021;-66
2022/10/23 00:37:51;;;;;;;13.25;6.55;;;;;;;13.77;75.85;101295.00;5050139;28;20025;-66
2022/10/23 00:40:16;;;;;;;11.43;6.78;;;;;;;13.78;75.91;101293.91;5082675;28;20028;-66
2022/10/23 00:42:42;;;;;;;11.43;6.72;;;;;;;13.78;76.11;101282.75;5089199;28;20436;-67
2022/10/23 00:45:26;;;;;;;14.57;7.70;;;;;;;13.79;76.57;101289.16;5091027;28;20039;-67
2022/10/23 00:47:54;;;;;;;11.02;7.32;;;;;;;13.82;76.47;101288.63;5091245;28;20076;-67
2022/10/23 00:50:23;;;;;;;11.45;7.40;;;;;;;13.75;76.25;101283.25;5088583;28;20036;-66
2022/10/23 00:52:51;;;;;;;14.10;7.88;;;;;;;13.75;76.26;101286.91;5090303;28;20077;-67
2022/10/23 00:55:19;;;;;;;9.57;6.65;;;;;;;13.77;76.56;101286.63;5090902;28;20111;-67
2022/10/23 00:57:47;;;;;;;13.57;7.75;;;;;;;13.75;76.68;101283.25;5069783;28;20093;-66
2022/10/23 01:00:23;;;;;;;14.20;7.20;;;;;;;13.77;76.58;101286.63;5072085;28;20546;-67
2022/10/23 01:02:50;;;;;;;14.45;7.57;;;;;;;13.79;77.03;101278.81;5067945;28;20029;-67
2022/10/23 01:05:16;;;;;;;11.88;7.38;;;;;;;13.80;77.02;101286.13;5048913;28;20033;-65
2022/10/23 01:07:49;;;;;;;14.57;6.60;;;;;;;13.81;76.71;101279.41;5052004;28;20074;-66
2022/10/23 01:10:20;;;;;;;15.00;6.72;;;;;;;13.80;76.95;101280.53;5053553;28;20035;-66
2022/10/23 01:13:16;;;;;;;13.45;7.13;;;;;;;13.84;77.01;101286.44;5063979;28;20036;-66
2022/10/23 01:15:58;;;;;;;11.25;6.70;;;;;;;13.84;76.77;101278.06;5070198;28;20384;-66
2022/10/23 01:18:47;;;;;;;10.63;6.85;;;;;;;13.83;77.00;101274.41;5070849;28;20032;-66
2022/10/23 01:21:28;;;;;;;12.32;6.47;;;;;;;13.78;76.67;101268.78;5071206;28;20384;-66
2022/10/23 01:24:03;;;;;;;13.60;6.45;;;;;;;13.80;76.58;101274.13;5065262;28;20105;-66
2022/10/23 01:26:47;;;;;;;11.70;6.72;;;;;;;13.78;76.38;101270.75;5070256;28;20037;-66
2022/10/23 01:29:24;;;;;;;11.48;6.70;;;;;;;13.75;76.37;101267.38;5071348;28;20043;-66
2022/10/23 01:31:53;;;;;;;10.07;6.63;;;;;;;13.76;76.08;101268.22;5070204;28;20041;-66
2022/10/23 01:34:41;;;;;;;13.40;6.50;;;;;;;13.77;76.46;101260.69;5070134;28;20464;-66
2022/10/23 01:37:12;;;;;;;10.30;6.38;;;;;;;13.72;75.66;101255.91;5070635;28;20077;-66
2022/10/23 01:39:43;;;;;;;9.05;5.95;;;;;;;13.68;75.85;101258.38;5068037;28;20094;-66
2022/10/23 01:42:12;;;;;;;11.05;6.50;;;;;;;13.69;76.18;101256.44;5067359;28;20017;-66
2022/10/23 01:44:53;;;;;;;14.80;6.13;;;;;;;13.73;76.41;101247.25;5070875;28;20036;-66
2022/10/23 01:47:24;;;;;;;10.98;6.03;;;;;;;13.66;75.66;101234.63;5070323;28;20016;-66
2022/10/23 01:49:56;;;;;;;10.35;6.65;;;;;;;13.68;76.20;101238.84;5057987;28;20024;-65
2022/10/23 01:52:21;;;;;;;11.48;6.20;;;;;;;13.64;75.79;101226.53;5070824;28;20562;-66
2022/10/23 01:54:50;;;;;;;13.73;6.00;;;;;;;13.61;76.19;101232.66;5073505;28;20039;-66
2022/10/23 01:57:18;;;;;;;10.60;6.07;;;;;;;13.59;76.06;101228.44;5074917;28;20103;-66
2022/10/23 01:59:49;;;;;;;10.25;5.68;;;;;;;13.55;76.24;101232.84;5067510;28;20032;-66
2022/10/23 02:02:16;;;;;;;14.02;6.55;;;;;;;13.54;75.67;101234.81;5070249;28;20028;-66
2022/10/23 02:04:54;;;;;;;9.35;6.07;;;;;;;13.52;76.18;101234.25;5074411;28;20035;-66
2022/10/23 02:07:19;;;;;;;10.07;6.18;;;;;;;13.51;75.92;101230.59;5074147;28;20024;-66
2022/10/23 02:09:44;;;;;;;10.77;6.07;;;;;;;13.53;76.24;101232.28;5058982;28;20029;-65
2022/10/23 02:12:28;;;;;;;10.13;6.38;;;;;;;13.51;76.28;101236.16;5063816;28;20174;-65
2022/10/23 02:15:13;;;;;;;12.05;6.15;;;;;;;13.51;76.05;101230.59;5053726;28;20483;-65
2022/10/23 02:18:09;;;;;;;10.15;6.07;;;;;;;13.54;76.52;101233.97;5054503;28;20044;-66
2022/10/23 02:20:44;;;;;;;11.85;5.45;;;;;;;13.54;76.36;101228.38;5076818;28;20062;-66
2022/10/23 02:23:15;;;;;;;10.75;5.78;;;;;;;13.52;76.52;101228.66;5054006;28;20040;-66
2022/10/23 02:25:53;;;;;;;11.35;6.32;;;;;;;13.53;76.21;101232.28;5056789;28;20480;-66
2022/10/23 02:28:24;;;;;;;7.25;5.80;;;;;;;13.50;76.59;101226.13;5059223;28;20502;-66
2022/10/23 02:30:50;;;;;;;11.13;5.60;;;;;;;13.54;76.51;101220.84;5089036;28;20036;-66
2022/10/23 02:33:16;;;;;;;13.15;5.88;;;;;;;13.50;76.51;101214.97;5073910;28;20024;-67
2022/10/23 02:35:42;;;;;;;17.10;6.25;;;;;;;13.51;77.07;101211.06;5073142;28;20025;-66
2022/10/23 02:38:35;;;;;;;8.05;6.28;;;;;;;13.58;77.22;101205.28;5071784;28;20104;-66
2022/10/23 02:41:26;;;;;;;11.48;6.10;;;;;;;13.52;77.21;101200.78;5073593;28;20031;-66
2022/10/23 02:44:24;;;;;;;9.10;5.85;;;;;;;13.60;77.25;101182.72;5063455;28;20036;-66
2022/10/23 02:47:14;;;;;;;12.05;6.00;;;;;;;13.59;77.48;101181.00;5074072;28;20032;-66
2022/10/23 02:49:55;;;;;;;11.70;6.07;;;;;;;13.59;77.63;101167.06;5064358;28;20041;-66
2022/10/23 02:52:32;;;;;;;12.68;6.20;;;;;;;13.57;77.88;101161.75;5082862;28;20036;-66
2022/10/23 02:55:30;;;;;;;10.85;6.03;;;;;;;13.61;77.56;101156.50;5094006;28;20908;-66
2022/10/23 02:58:07;;;;;;;12.73;6.38;;;;;;;13.61;77.65;101151.75;5092848;28;20107;-66
2022/10/23 03:00:36;;;;;;;10.60;6.13;;;;;;;13.62;77.72;101145.06;5075157;28;20119;-66
2022/10/23 03:03:10;;;;;;;12.75;6.20;;;;;;;13.60;78.07;101133.34;5062172;28;20652;-66
2022/10/23 03:05:39;;;;;;;10.90;5.95;;;;;;;13.65;78.09;101143.72;5072589;28;20064;-66
2022/10/23 03:08:08;;;;;;;11.73;5.72;;;;;;;13.64;78.42;101139.25;5072114;28;20796;-66
2022/10/23 03:10:33;;;;;;;9.07;6.25;;;;;;;13.66;77.98;101128.63;5068150;28;20032;-66
2022/10/23 03:12:58;;;;;;;13.65;6.65;;;;;;;13.66;78.12;101125.84;5090075;28;20402;-66
2022/10/23 03:15:23;;;;;;;14.32;6.50;;;;;;;13.64;78.28;101126.13;5059508;28;20112;-66
2022/10/23 03:17:49;;;;;;;11.73;6.90;;;;;;;13.66;77.96;101123.06;5052747;28;20094;-66
2022/10/23 03:20:14;;;;;;;12.68;6.60;;;;;;;13.66;77.96;101117.47;5066420;28;20044;-66
2022/10/23 03:22:39;;;;;;;15.85;6.88;;;;;;;13.68;78.14;101115.28;5090127;28;20063;-66
2022/10/23 03:25:06;;;;;;;12.02;6.07;;;;;;;13.67;78.18;101120.00;5087150;28;20024;-66
2022/10/23 03:27:32;;;;;;;14.48;6.40;;;;;;;13.69;78.42;101114.16;5071322;28;20115;-66
2022/10/23 03:29:57;;;;;;;10.77;6.80;;;;;;;13.66;78.45;101117.47;5072452;28;20120;-66
2022/10/23 03:32:22;;;;;;;10.65;6.28;;;;;;;13.67;77.92;101121.94;5085143;28;20079;-67
2022/10/23 03:34:47;;;;;;;10.85;6.13;;;;;;;13.68;78.47;101109.69;5075230;28;20116;-67
2022/10/23 03:37:13;;;;;;;11.18;6.47;;;;;;;13.66;78.59;101114.69;5070454;28;20147;-67
2022/10/23 03:39:38;;;;;;;12.13;6.93;;;;;;;13.67;78.29;101102.41;5054391;28;20093;-66
2022/10/23 03:42:03;;;;;;;12.02;6.75;;;;;;;13.69;78.43;101106.63;5083822;28;20508;-67
2022/10/23 03:44:33;;;;;;;10.63;6.63;;;;;;;13.66;78.09;101106.31;5077594;28;20507;-67
2022/10/23 03:46:58;;;;;;;15.88;6.90;;;;;;;13.69;78.38;101101.06;5051702;28;20025;-67
2022/10/23 03:49:23;;;;;;;12.82;6.72;;;;;;;13.72;78.37;101096.91;5060716;28;20032;-66
2022/10/23 03:51:51;;;;;;;15.05;6.95;;;;;;;13.70;78.18;101091.56;5075111;28;20038;-66
2022/10/23 03:54:24;;;;;;;13.75;7.40;;;;;;;13.70;78.54;101093.53;5092139;28;20028;-67
2022/10/23 03:56:50;;;;;;;10.20;6.93;;;;;;;13.71;78.31;101086.81;5087321;28;20024;-66
2022/10/23 03:59:15;;;;;;;8.35;6.57;;;;;;;13.73;78.31;101081.84;5072098;28;20456;-66
2022/10/23 04:01:41;;;;;;;11.77;6.50;;;;;;;13.72;78.46;101078.22;5073151;28;20379;-66
2022/10/23 04:04:06;;;;;;;16.40;7.00;;;;;;;13.72;78.12;101078.22;5092500;28;20067;-66
2022/10/23 04:06:31;;;;;;;13.10;6.68;;;;;;;13.71;78.05;101067.31;5058858;28;20143;-66
2022/10/23 04:08:57;;;;;;;10.85;6.63;;;;;;;13.71;78.68;101064.50;5071545;28;20013;-66
2022/10/23 04:11:22;;;;;;;14.45;7.15;;;;;;;13.73;78.31;101062.31;5075101;28;20455;-67
2022/10/23 04:13:50;;;;;;;10.63;7.00;;;;;;;13.68;78.41;101054.75;5090490;28;20047;-67
2022/10/23 04:16:15;;;;;;;10.35;6.80;;;;;;;13.70;78.14;101052.50;5061816;28;20028;-67
2022/10/23 04:18:41;;;;;;;15.75;6.72;;;;;;;13.69;78.70;101050.84;5065205;28;20035;-67
2022/10/23 04:21:07;;;;;;;11.68;7.38;;;;;;;13.71;78.63;101056.97;5054758;28;20159;-67
2022/10/23 04:23:32;;;;;;;10.63;6.18;;;;;;;13.72;78.71;101058.69;5091566;28;20028;-67
2022/10/23 04:25:58;;;;;;;8.93;6.45;;;;;;;13.68;78.74;101065.06;5092106;28;20110;-67
2022/10/23 04:28:23;;;;;;;12.65;6.40;;;;;;;13.70;78.66;101062.84;5090055;28;20347;-66
2022/10/23 04:30:49;;;;;;;14.25;6.63;;;;;;;13.70;78.88;101062.84;5064211;28;20053;-66
2022/10/23 04:33:14;;;;;;;14.25;7.13;;;;;;;13.70;78.78;101065.63;5073775;28;20040;-67
2022/10/23 04:35:39;;;;;;;11.93;6.15;;;;;;;13.71;78.71;101059.78;5069837;28;20052;-66
2022/10/23 04:38:05;;;;;;;15.45;6.95;;;;;;;13.71;78.67;101061.72;5071509;28;20510;-66
2022/10/23 04:40:30;;;;;;;12.75;6.22;;;;;;;13.69;78.85;101058.38;5068801;28;20028;-66
2022/10/23 04:42:55;;;;;;;8.57;6.05;;;;;;;13.71;78.63;101054.19;5071760;28;20036;-66
2022/10/23 04:45:20;;;;;;;13.07;6.80;;;;;;;13.72;78.67;101055.91;5071041;28;20033;-66
2022/10/23 04:47:46;;;;;;;13.60;6.68;;;;;;;13.69;78.87;101050.84;5071182;28;20024;-66
2022/10/23 04:50:12;;;;;;;9.60;6.72;;;;;;;13.70;78.95;101051.69;5069194;28;20478;-67
2022/10/23 04:52:37;;;;;;;12.65;6.47;;;;;;;13.72;78.67;101049.47;5086306;28;20036;-65
2022/10/23 04:55:03;;;;;;;9.40;6.55;;;;;;;13.70;78.71;101044.16;5091401;28;20042;-66
2022/10/23 04:57:28;;;;;;;9.25;6.40;;;;;;;13.70;78.90;101030.19;5089959;28;20085;-66
2022/10/23 04:59:54;;;;;;;13.40;7.13;;;;;;;13.69;78.65;101036.91;5090535;28;20032;-66
2022/10/23 05:02:19;;;;;;;10.25;6.43;;;;;;;13.69;78.84;101027.69;5070906;28;20777;-66
2022/10/23 05:04:44;;;;;;;9.73;6.03;;;;;;;13.72;78.96;101029.94;5069929;28;20035;-66
2022/10/23 05:07:10;;;;;;;9.50;6.25;;;;;;;13.70;78.88;101035.78;5070403;28;20031;-67
2022/10/23 05:09:35;;;;;;;13.90;6.43;;;;;;;13.70;79.13;101030.19;5064392;28;20420;-66
2022/10/23 05:12:00;;;;;;;14.18;6.43;;;;;;;13.73;78.89;101037.19;5070521;28;20762;-66
2022/10/23 05:14:25;;;;;;;10.73;6.05;;;;;;;13.72;78.98;101027.16;5068259;28;20120;-66
2022/10/23 05:16:56;;;;;;;9.30;5.78;;;;;;;13.73;79.11;101026.03;5049371;28;20146;-66
2022/10/23 05:19:26;;;;;;;11.10;5.85;;;;;;;13.70;79.09;101021.00;5050878;28;20762;-66
2022/10/23 05:21:54;;;;;;;11.65;5.57;;;;;;;13.72;78.97;101016.00;5050741;28;20428;-66
2022/10/23 05:24:21;;;;;;;11.18;5.60;;;;;;;13.71;79.26;101017.09;5085335;28;20023;-66
2022/10/23 05:26:47;;;;;;;10.73;5.70;;;;;;;13.70;79.19;101019.03;5065208;28;20491;-66
2022/10/23 05:29:12;;;;;;;10.68;5.95;;;;;;;13.71;79.26;101014.31;5050585;28;20136;-66
2022/10/23 05:31:38;;;;;;;10.68;6.20;;;;;;;13.69;79.73;101010.97;5049703;28;20055;-65
2022/10/23 05:34:04;;;;;;;10.13;5.70;;;;;;;13.68;79.62;101018.50;5056951;28;20122;-66
2022/10/23 05:36:30;;;;;;;9.63;5.68;;;;;;;13.67;79.61;101008.41;5054134;28;20032;-66
2022/10/23 05:38:56;;;;;;;9.18;5.15;;;;;;;13.71;79.04;101009.56;5049788;28;20104;-66
2022/10/23 05:41:21;;;;;;;9.55;5.82;;;;;;;13.71;79.51;101006.75;5060330;28;20052;-66
2022/10/23 05:43:47;;;;;;;13.50;5.65;;;;;;;13.70;79.36;101012.63;5073600;28;20450;-66
2022/10/23 05:46:12;;;;;;;14.30;6.72;;;;;;;13.69;79.52;101008.16;5052075;28;20102;-66
2022/10/23 05:48:37;;;;;;;12.23;6.65;;;;;;;13.70;79.25;101002.31;5055166;28;20124;-67
2022/10/23 05:51:08;;;;;;;9.88;5.57;;;;;;;13.70;79.34;101007.88;5068981;28;20037;-66
2022/10/23 05:53:34;;;;;;;10.93;5.75;;;;;;;13.71;79.58;100992.81;5077290;28;20039;-67
2022/10/23 05:56:06;;;;;;;10.68;5.53;;;;;;;13.73;79.58;100998.16;5080341;28;20036;-67
2022/10/23 05:58:32;;;;;;;9.18;5.32;;;;;;;13.71;79.64;100995.59;5066696;28;20479;-67
2022/10/23 06:00:57;;;;;;;9.23;5.15;;;;;;;13.70;79.68;100995.91;5051716;28;20032;-67
2022/10/23 06:03:22;;;;;;;11.77;5.28;;;;;;;13.73;79.58;100995.34;5071614;28;20071;-67
2022/10/23 06:05:49;;;;;;;11.88;4.97;;;;;;;13.73;79.52;100995.34;5081900;28;20041;-67
2022/10/23 06:08:14;;;;;;;10.23;5.05;;;;;;;13.72;79.83;100985.31;5057874;28;20056;-67
2022/10/23 06:10:40;;;;;;;8.25;5.07;;;;;;;13.75;79.60;100984.75;5069786;28;20060;-67
2022/10/23 06:13:05;;;;;;;10.18;5.28;;;;;;;13.75;79.38;100985.63;5057634;28;20044;-67
2022/10/23 06:15:31;;;;;;;8.63;4.95;;;;;;;13.74;79.78;100985.88;5061784;28;20348;-67
2022/10/23 06:18:00;;;;;;;11.23;5.20;;;;;;;13.74;79.58;100988.66;5058772;28;20112;-67
2022/10/23 06:20:25;;;;;;;7.03;4.57;;;;;;;13.75;79.63;100979.16;5049492;28;20427;-67
2022/10/23 06:22:51;;;;;;;9.90;4.85;;;;;;;13.74;79.35;100985.88;5050283;28;20021;-67
2022/10/23 06:25:17;;;;;;;11.82;4.78;;;;;;;13.74;79.80;100969.97;5055056;28;20021;-67
2022/10/23 06:27:42;;;;;;;10.02;5.35;;;;;;;13.78;79.45;100972.22;5063544;28;20037;-66
2022/10/23 06:30:08;;;;;;;11.88;4.78;;;;;;;13.78;79.58;100972.22;5069758;28;20036;-66
2022/10/23 06:32:33;;;;;;;10.95;5.22;;;;;;;13.77;79.58;100965.81;5069303;28;20067;-66
2022/10/23 06:34:58;;;;;;;12.75;4.85;;;;;;;13.75;79.68;100966.09;5063542;28;20037;-66
2022/10/23 06:37:23;;;;;;;7.45;4.88;;;;;;;13.75;79.97;100960.50;5069296;28;20503;-66
2022/10/23 06:39:49;;;;;;;11.00;5.55;;;;;;;13.75;80.12;100959.66;5076098;28;20123;-66
2022/10/23 06:42:14;;;;;;;8.13;4.95;;;;;;;13.78;79.89;100958.28;5072630;28;20383;-67
2022/10/23 06:44:39;;;;;;;9.50;4.53;;;;;;;13.78;80.28;100949.91;5073736;28;20032;-67
2022/10/23 06:47:05;;;;;;;7.88;4.20;;;;;;;13.79;80.30;100948.78;5072662;28;20039;-66
2022/10/23 06:49:30;;;;;;;11.43;4.30;;;;;;;13.76;80.41;100939.03;5091118;28;20528;-67
2022/10/23 06:51:56;;;;;;;10.68;4.75;;;;;;;13.77;80.35;100934.28;5094294;28;20456;-67
2022/10/23 06:54:21;;;;;;;10.32;4.65;;;;;;;13.79;80.05;100943.22;5094889;28;20510;-65
2022/10/23 06:56:46;;;;;;;21.85;9.45;;;;;;;13.79;80.01;100935.66;5075680;28;20033;-66
2022/10/23 06:59:13;;;;;;;28.83;14.15;;;;;;;13.80;80.40;100944.91;5088525;28;20043;-66
2022/10/23 07:01:38;;;;;;;23.40;13.90;;;;;;;13.80;79.96;100933.75;5070679;28;20029;-66
2022/10/23 07:04:04;;;;;;;27.77;16.85;;;;;;;13.82;80.05;100940.72;5064069;28;20040;-66
2022/10/23 07:06:29;;;;;;;13.70;7.53;;;;;;;13.83;80.13;100936.81;5054369;28;20108;-65
2022/10/23 07:08:54;;;;;;;9.38;4.72;;;;;;;13.84;80.34;100935.72;5072615;28;20491;-67
2022/10/23 07:11:20;;;;;;;9.15;4.25;;;;;;;13.86;80.34;100944.63;5082528;28;20091;-66
2022/10/23 07:13:45;;;;;;;8.35;4.45;;;;;;;13.86;80.12;100930.69;5093092;28;20475;-66
2022/10/23 07:16:20;;;;;;;9.80;4.18;;;;;;;13.87;80.00;100932.38;5060767;28;20025;-66
2022/10/23 07:18:47;;;;;;;9.15;4.75;;;;;;;13.88;80.16;100934.06;5061083;28;20020;-66
2022/10/23 07:21:12;;;;;;;11.63;4.25;;;;;;;13.88;80.44;100930.44;5052677;28;20051;-66
2022/10/23 07:23:38;;;;;;;12.13;5.05;;;;;;;13.89;80.58;100926.53;5055027;28;20108;-66
2022/10/23 07:26:13;;;;;;;8.90;3.53;;;;;;;13.90;80.49;100917.03;5092665;28;20028;-66
2022/10/23 07:28:40;;;;;;;14.20;3.80;;;;;;;13.92;80.19;100925.97;5087001;28;20031;-66
2022/10/23 07:31:06;;;;;;;5.95;3.33;;;;;;;13.90;80.27;100920.66;5068969;28;20860;-66
2022/10/23 07:33:32;;;;;;;6.75;3.55;;;;;;;13.95;80.00;100919.81;5066581;28;20361;-66
2022/10/23 07:36:00;;;;;;;8.23;3.63;;;;;;;13.94;80.33;100919.00;5086194;28;20105;-66
2022/10/23 07:38:26;;;;;;;9.80;3.85;;;;;;;13.97;80.64;100918.44;5086374;28;20031;-67
2022/10/23 07:40:52;;;;;;;10.32;4.10;;;;;;;13.96;80.71;100916.78;5072551;28;20383;-67
2022/10/23 07:43:19;;;;;;;10.43;3.67;;;;;;;13.99;79.96;100910.66;5072293;28;20032;-67
2022/10/23 07:45:48;;;;;;;8.10;3.42;;;;;;;14.02;80.29;100914.81;5069698;28;20020;-66
2022/10/23 07:48:14;;;;;;;9.18;4.43;;;;;;;14.02;80.61;100916.78;5077948;28;20092;-67
2022/10/23 07:50:40;;;;;;;6.22;4.00;;;;;;;13.99;80.33;100905.06;5066440;28;20032;-67
2022/10/23 07:53:05;;;;;;;6.40;4.07;;;;;;;14.04;80.24;100907.03;5071081;28;20675;-67
2022/10/23 07:55:30;;;;;;;10.27;3.92;;;;;;;14.05;80.41;100910.66;5080789;28;20071;-65
2022/10/23 07:57:56;;;;;;;7.25;4.13;;;;;;;14.03;80.49;100908.16;5088953;28;20108;-66
2022/10/23 08:00:21;;;;;;;10.98;4.32;;;;;;;14.05;80.76;100913.44;5055291;28;20476;-66
2022/10/23 08:02:46;;;;;;;7.10;4.28;;;;;;;14.06;80.46;100907.59;5052817;28;20037;-66
2022/10/23 08:05:12;;;;;;;10.65;4.72;;;;;;;14.07;80.36;100902.84;5052992;28;20024;-66
2022/10/23 08:07:37;;;;;;;8.95;4.63;;;;;;;14.09;80.75;100911.78;5074042;28;20475;-66
2022/10/23 08:10:03;;;;;;;10.23;4.50;;;;;;;14.11;80.53;100899.25;5091378;28;20371;-66
2022/10/23 08:12:28;;;;;;;10.95;5.03;;;;;;;14.11;80.90;100901.16;5091430;28;20028;-66
2022/10/23 08:14:54;;;;;;;10.05;5.03;;;;;;;14.13;80.98;100899.78;5072752;28;20586;-66
2022/10/23 08:17:19;;;;;;;6.00;4.38;;;;;;;14.16;80.64;100896.47;5072685;28;20036;-66
2022/10/23 08:19:47;;;;;;;8.02;4.88;;;;;;;14.17;80.72;100895.34;5071262;28;20808;-66
2022/10/23 08:22:12;;;;;;;5.65;4.32;;;;;;;14.17;81.05;100900.91;5069153;28;20033;-66
2022/10/23 08:24:38;;;;;;;9.60;5.45;;;;;;;14.19;80.75;100904.28;5053001;28;20040;-66
2022/10/23 08:27:03;;;;;;;8.20;4.97;;;;;;;14.23;80.85;100899.81;5071545;28;20029;-66
2022/10/23 08:29:29;;;;;;;9.32;4.63;;;;;;;14.23;81.17;100888.66;5070746;28;20089;-66
2022/10/23 08:31:56;;;;;;;7.80;4.63;;;;;;;14.24;81.07;100893.13;5069906;28;20044;-66
2022/10/23 08:34:22;;;;;;;12.00;4.70;;;;;;;14.25;80.96;100891.16;5069025;28;20052;-67
2022/10/23 08:36:47;;;;;;;11.80;4.95;;;;;;;14.26;80.86;100887.25;5070514;28;20067;-66
2022/10/23 08:39:12;;;;;;;10.95;4.75;;;;;;;14.28;80.94;100887.81;5072054;28;20065;-66
2022/10/23 08:41:46;;;;;;;11.40;4.78;;;;;;;14.30;80.65;100881.94;5069388;28;20025;-65
2022/10/23 08:44:24;;;;;;;10.82;5.25;;;;;;;14.30;80.93;100880.00;5072939;28;20024;-66
2022/10/23 08:47:00;;;;;;;11.93;4.50;;;;;;;14.30;80.86;100868.00;5091741;28;20024;-66
2022/10/23 08:49:44;;;;;;;7.28;4.25;;;;;;;14.34;80.76;100877.47;5075970;28;20081;-66
2022/10/23 08:52:23;;;;;;;10.13;5.82;;;;;;;14.32;80.75;100877.78;5070718;28;20056;-66
2022/10/23 08:55:11;;;;;;;12.40;9.25;;;;;;;14.35;80.46;100879.19;5070252;28;20067;-66
2022/10/23 08:57:44;;;;;;;10.40;6.15;;;;;;;14.34;80.79;100869.94;5071209;28;20027;-67
2022/10/23 09:00:16;;;;;;;9.30;5.47;;;;;;;14.36;80.62;100864.94;5069925;28;20036;-67
2022/10/23 09:02:45;;;;;;;6.15;4.65;;;;;;;14.37;80.74;100869.41;5056606;28;20052;-67
2022/10/23 09:05:14;;;;;;;10.55;4.80;;;;;;;14.38;80.66;100864.63;5069541;28;20060;-66
2022/10/23 09:07:59;;;;;;;9.05;4.95;;;;;;;14.38;80.83;100845.97;5068500;28;20476;-69
2022/10/23 09:11:03;;;;;;;9.18;4.90;;;;;;;14.40;80.48;100840.91;5070244;28;20025;-69
2022/10/23 09:13:41;;;;;;;10.40;4.78;;;;;;;14.39;80.73;100839.25;5065847;28;20377;-69
2022/10/23 09:16:13;;;;;;;9.60;4.80;;;;;;;14.41;80.78;100842.59;5061702;28;20074;-68
2022/10/23 09:18:40;;;;;;;9.52;5.07;;;;;;;14.43;80.65;100834.78;5065975;28;20043;-68
2022/10/23 09:21:10;;;;;;;8.77;4.22;;;;;;;14.45;80.71;100829.75;5067631;28;20421;-69
2022/10/23 09:23:36;;;;;;;7.85;4.68;;;;;;;14.46;80.96;100827.78;5064578;28;20036;-67
2022/10/23 09:26:10;;;;;;;12.50;4.65;;;;;;;14.47;80.76;100821.94;5067000;28;20031;-68
2022/10/23 09:28:44;;;;;;;10.07;4.30;;;;;;;14.49;80.43;100814.13;5067468;28;20032;-72
2022/10/23 09:31:11;;;;;;;8.40;4.00;;;;;;;14.52;80.45;100817.50;5067935;28;20059;-70
2022/10/23 09:33:38;;;;;;;8.63;4.60;;;;;;;14.54;80.21;100820.81;5070446;28;20024;-69
2022/10/23 09:36:05;;;;;;;7.20;4.10;;;;;;;14.54;80.31;100816.09;5053268;28;20032;-70
2022/10/23 09:38:35;;;;;;;7.95;3.97;;;;;;;14.56;80.25;100799.06;5056236;28;20039;-69
2022/10/23 09:41:09;;;;;;;6.82;4.43;;;;;;;14.57;80.24;100792.34;5060150;28;20058;-70
2022/10/23 09:43:35;;;;;;;7.72;4.15;;;;;;;14.59;80.43;100788.16;5047534;28;20037;-71
2022/10/23 09:46:03;;;;;;;11.40;4.07;;;;;;;14.60;80.28;100794.56;5055076;28;20029;-69
2022/10/23 09:48:29;;;;;;;10.68;4.50;;;;;;;14.59;80.41;100792.91;5062739;28;20033;-69
2022/10/23 09:51:03;;;;;;;9.55;4.30;;;;;;;14.60;80.72;100797.38;5067325;28;20032;-70
2022/10/23 09:53:31;;;;;;;6.65;4.07;;;;;;;14.62;80.67;100793.19;5062483;28;20044;-70
2022/10/23 09:56:10;;;;;;;8.80;4.50;;;;;;;14.63;80.76;100789.28;5072565;28;20592;-70
2022/10/23 09:58:39;;;;;;;7.88;4.45;;;;;;;14.65;80.76;100786.19;5080064;28;20032;-72
2022/10/23 10:01:05;;;;;;;10.95;4.22;;;;;;;14.65;80.71;100784.22;5065247;28;20025;-72
2022/10/23 10:03:30;;;;;;;9.23;4.90;;;;;;;14.68;80.76;100774.44;5046730;28;20095;-73
2022/10/23 10:05:58;;;;;;;7.93;4.78;;;;;;;14.70;80.60;100763.84;5059046;28;20039;-71
2022/10/23 10:08:31;;;;;;;10.38;4.72;;;;;;;14.69;80.73;100760.19;5088067;28;20405;-70
2022/10/23 10:10:59;;;;;;;9.55;4.65;;;;;;;14.70;80.84;100753.50;5067555;28;20036;-70
2022/10/23 10:13:35;;;;;;;7.47;4.13;;;;;;;14.72;80.78;100756.00;5046408;28;20040;-70
2022/10/23 10:16:25;;;;;;;9.30;4.60;;;;;;;14.73;80.63;100747.31;5075394;28;20677;-68
2022/10/23 10:18:58;;;;;;;8.60;4.78;;;;;;;14.76;80.52;100743.13;5062765;28;20180;-70
2022/10/23 10:21:52;;;;;;;9.35;4.55;;;;;;;14.79;80.57;100736.16;5061308;28;20024;-70
2022/10/23 10:24:29;;;;;;;11.15;4.72;;;;;;;14.78;80.51;100726.94;5065236;28;20075;-71
2022/10/23 10:27:22;;;;;;;11.18;4.45;;;;;;;14.81;80.70;100726.34;5056287;28;20585;-70
2022/10/23 10:29:53;;;;;;;8.45;4.65;;;;;;;14.84;80.61;100730.53;5057568;28;20031;-70
2022/10/23 10:32:39;;;;;;;12.35;5.30;;;;;;;14.85;80.39;100733.03;5059611;28;20060;-69
2022/10/23 10:35:04;;;;;;;8.52;4.55;;;;;;;14.87;80.33;100739.19;5070555;28;20067;-69
2022/10/23 10:37:53;;;;;;;9.30;4.82;;;;;;;14.90;80.26;100735.00;5069808;28;20103;-69
2022/10/23 10:40:29;;;;;;;10.27;5.75;;;;;;;14.92;80.41;100727.16;5054852;28;20037;-69
2022/10/23 10:43:41;;;;;;;11.05;5.60;;;;;;;14.98;80.24;100732.44;5069382;28;20067;-69
2022/10/23 10:46:18;;;;;;;12.45;5.65;;;;;;;15.03;80.21;100722.38;5065331;28;20102;-70
2022/10/23 10:48:48;;;;;;;12.55;4.85;;;;;;;15.06;80.40;100719.00;5069852;28;20020;-71
2022/10/23 10:51:32;;;;;;;10.27;5.93;;;;;;;15.11;80.42;100713.38;5065531;28;20037;-71
2022/10/23 10:54:10;;;;;;;8.60;4.90;;;;;;;15.16;80.13;100708.59;5068768;28;20479;-71
2022/10/23 10:56:40;;;;;;;10.88;5.55;;;;;;;15.22;79.98;100699.06;5068559;28;20029;-70
2022/10/23 10:59:13;;;;;;;10.50;5.07;;;;;;;15.28;79.56;100697.06;5063515;28;20035;-73
2022/10/23 11:02:21;;;;;;;11.00;6.57;;;;;;;15.34;79.67;100695.94;5072027;28;20115;-71
2022/10/23 11:04:55;;;;;;;12.50;4.80;;;;;;;15.41;78.99;100704.00;5063902;28;20074;-71
2022/10/23 11:07:26;;;;;;;6.78;4.35;;;;;;;15.45;79.08;100699.50;5064819;28;20536;-77
2022/10/23 11:09:52;;;;;;;6.43;4.38;;;;;;;15.49;78.92;100692.19;5075463;28;20533;-67
2022/10/23 11:12:26;;;;;;;6.28;3.95;;;;;;;15.51;78.85;100689.09;5062309;28;20025;-64
2022/10/23 11:14:51;;;;;;;8.13;4.55;;;;;;;15.54;79.10;100674.53;5052903;28;20025;-70
2022/10/23 11:17:32;;;;;;;7.15;4.30;;;;;;;15.57;79.07;100691.59;5052402;28;20028;-70
2022/10/23 11:20:04;;;;;;;7.72;4.30;;;;;;;15.61;78.90;100686.25;5052964;28;20369;-70
2022/10/23 11:22:35;;;;;;;10.73;5.90;;;;;;;15.65;79.04;100685.41;5080817;28;20031;-69
2022/10/23 11:25:38;;;;;;;10.48;4.32;;;;;;;15.70;79.15;100678.91;5092633;28;20016;-69
2022/10/23 11:28:46;;;;;;;12.70;5.65;;;;;;;15.76;78.92;100669.38;5093423;28;20070;-70
2022/10/23 11:31:42;;;;;;;7.72;4.60;;;;;;;15.81;78.63;100663.72;5085612;28;20254;-70
2022/10/23 11:34:35;;;;;;;10.35;4.47;;;;;;;15.85;78.66;100641.59;5092653;28;20040;-70